Hannover, North Dakota
Current Conditions -  °F | °C
As of 8:35 AM on Thursday 29 Jan 2015 (Local Time) from KD57 Reporting Station
Overcast Overcast  
Wind Chill: 15°   Ceiling: 1800
Heat Index: 27°   Visibility: 10mi
Dew Point: 19°   Wind: 15mph
Humidity: 74%   Direction: 310°NW
Pressure: 30.44"   Gusts: 22mph
Location:  46.861°N, 101.466°W
Report Text: KD57 291435Z AUTO 31013G19KT 10SM OVC018 M03/M07 A3044 RMK AO2
Loading
Personal Weather Stations






























Interactive Weather Map New forecast layout! Learn more

10-Day Weather Forecast

Advertisements
Track Severe Weather on mobile